« Back
NWS Peachtree City, Ga » Text Product » ATL Terminal Aerodrome Forecast


Printer-friendly Version
Current Version              Previous Versions:   1  2  3  4  5  6  7  8  9  

Terminal Aerodrome Forecast

457
FTUS42 KFFC 272211 AAD
TAFATL
TAF AMD
KATL 272211Z 2722/2824 34005KT P6SM VCSH SCT060
     FM280000 32003KT P6SM SCT120
     FM280600 01003KT P6SM SCT250
     FM281400 34005KT P6SM FEW040
     FM281800 32006KT P6SM SCT050=

USA.gov is the U.S. government's official web portal to all federal, state and local government web resources and services.